createdAt,value
2023-01-29T00:02:05.547Z,0.41
2023-01-29T00:04:32.431Z,0.43
2023-01-29T00:06:59.030Z,0.43
2023-01-29T00:09:27.657Z,0.44
2023-01-29T00:11:54.355Z,0.43
2023-01-29T00:14:21.344Z,0.45
2023-01-29T00:16:47.995Z,0.44
2023-01-29T00:19:14.793Z,0.43
2023-01-29T00:21:41.420Z,0.43
2023-01-29T00:24:08.285Z,0.43
2023-01-29T00:26:36.434Z,0.44
2023-01-29T00:29:03.120Z,0.45
2023-01-29T00:31:29.999Z,0.48
2023-01-29T00:33:56.996Z,0.51
2023-01-29T00:36:25.593Z,0.52
2023-01-29T00:38:54.976Z,0.54
2023-01-29T00:41:22.150Z,0.55
2023-01-29T00:43:50.170Z,0.53
2023-01-29T00:46:16.884Z,0.54
2023-01-29T00:48:43.539Z,0.55
2023-01-29T00:51:10.163Z,0.56
2023-01-29T00:53:36.821Z,0.58
2023-01-29T00:56:03.628Z,0.58
2023-01-29T00:58:30.212Z,0.58
2023-01-29T01:00:58.185Z,0.59
2023-01-29T01:03:24.964Z,0.60
2023-01-29T01:06:02.016Z,0.60
2023-01-29T01:08:28.598Z,0.61
2023-01-29T01:10:59.674Z,0.60
2023-01-29T01:13:26.266Z,0.61
2023-01-29T01:15:53.089Z,0.62
2023-01-29T01:18:21.264Z,0.61
2023-01-29T01:20:48.285Z,0.62
2023-01-29T01:23:14.932Z,0.64
2023-01-29T01:25:41.542Z,0.64
2023-01-29T01:28:08.955Z,0.63
2023-01-29T01:30:35.661Z,0.63
2023-01-29T01:33:02.373Z,0.65
2023-01-29T01:35:30.621Z,0.66
2023-01-29T01:37:57.223Z,0.68
2023-01-29T01:40:26.120Z,0.69
2023-01-29T01:42:54.364Z,0.70
2023-01-29T01:45:25.502Z,0.70
2023-01-29T01:47:55.920Z,0.70
2023-01-29T01:50:26.759Z,0.70
2023-01-29T01:52:59.764Z,0.72
2023-01-29T01:55:29.906Z,0.75
2023-01-29T01:58:02.130Z,0.76
2023-01-29T02:00:28.801Z,0.77
2023-01-29T02:02:55.690Z,0.76
2023-01-29T02:05:22.519Z,0.77
2023-01-29T02:07:51.417Z,0.79
2023-01-29T02:10:20.677Z,0.81
2023-01-29T02:12:47.822Z,0.81
2023-01-29T02:15:14.431Z,0.82
2023-01-29T02:17:41.156Z,0.84
2023-01-29T02:20:18.099Z,0.84
2023-01-29T02:23:18.576Z,0.86
2023-01-29T02:26:08.064Z,0.88
2023-01-29T02:28:44.635Z,0.89
2023-01-29T02:31:21.861Z,0.89
2023-01-29T02:34:00.503Z,0.92
2023-01-29T02:36:36.193Z,0.92
2023-01-29T02:39:13.009Z,0.93
2023-01-29T02:41:44.505Z,0.94
2023-01-29T02:44:20.820Z,0.95
2023-01-29T02:46:56.681Z,0.94
2023-01-29T02:49:31.751Z,0.94
2023-01-29T02:52:03.245Z,0.92
2023-01-29T02:54:37.995Z,0.92
2023-01-29T02:57:10.255Z,0.90
2023-01-29T02:59:42.873Z,0.90
2023-01-29T03:02:12.234Z,0.88
2023-01-29T03:04:43.056Z,0.90
2023-01-29T03:07:15.523Z,0.88
2023-01-29T03:09:48.253Z,0.89
2023-01-29T03:12:22.503Z,0.89
2023-01-29T03:14:51.477Z,0.91
2023-01-29T03:17:20.141Z,0.91
2023-01-29T03:19:48.905Z,0.89
2023-01-29T03:22:17.200Z,0.91
2023-01-29T03:24:47.423Z,0.93
2023-01-29T03:27:18.054Z,0.91
2023-01-29T03:29:46.913Z,0.93
2023-01-29T03:32:16.829Z,0.95
2023-01-29T03:34:48.112Z,0.95
2023-01-29T03:37:21.285Z,0.94
2023-01-29T03:39:48.167Z,0.96
2023-01-29T03:42:22.464Z,0.96
2023-01-29T03:44:57.162Z,0.98
2023-01-29T03:47:32.437Z,0.96
2023-01-29T03:50:03.045Z,0.96
2023-01-29T03:52:40.924Z,0.94
2023-01-29T03:55:14.877Z,0.94
2023-01-29T03:57:45.175Z,0.93
2023-01-29T04:00:16.460Z,0.94
2023-01-29T04:02:51.055Z,0.94
2023-01-29T04:05:21.223Z,0.92
2023-01-29T04:07:52.632Z,0.93
2023-01-29T04:10:22.831Z,0.91
2023-01-29T04:12:55.041Z,0.88
2023-01-29T04:15:23.120Z,0.87
2023-01-29T04:17:52.956Z,0.86
2023-01-29T04:20:20.294Z,0.88
2023-01-29T04:22:51.074Z,0.88
2023-01-29T04:25:22.324Z,0.90
2023-01-29T04:27:57.206Z,0.90
2023-01-29T04:30:33.166Z,0.90
2023-01-29T04:33:17.220Z,0.93
2023-01-29T04:35:56.079Z,0.94
2023-01-29T04:38:32.265Z,0.92
2023-01-29T04:41:05.017Z,0.94
2023-01-29T04:43:39.482Z,0.94
2023-01-29T04:46:14.076Z,0.95
2023-01-29T04:48:54.975Z,0.92
2023-01-29T04:51:25.698Z,0.93
2023-01-29T04:54:00.411Z,0.95
2023-01-29T04:56:35.487Z,0.94
2023-01-29T04:59:06.502Z,0.96
2023-01-29T05:01:35.575Z,0.94
2023-01-29T05:04:08.993Z,0.95
2023-01-29T05:06:36.012Z,0.95
2023-01-29T05:09:02.993Z,0.98
2023-01-29T05:11:32.131Z,1.00
2023-01-29T05:14:02.211Z,1.01
2023-01-29T05:16:33.391Z,1.01
2023-01-29T05:18:59.979Z,1.02
2023-01-29T05:21:28.377Z,1.02
2023-01-29T05:24:10.846Z,1.02
2023-01-29T05:26:37.807Z,1.03
2023-01-29T05:29:04.436Z,1.03
2023-01-29T05:31:31.406Z,1.03
2023-01-29T05:33:58.084Z,1.04
2023-01-29T05:36:24.651Z,1.05
2023-01-29T05:38:52.679Z,1.06
2023-01-29T05:41:19.355Z,1.08
2023-01-29T05:43:45.991Z,1.10
2023-01-29T05:46:12.609Z,1.11
2023-01-29T05:48:39.286Z,1.11
2023-01-29T05:51:06.046Z,1.11
2023-01-29T05:53:33.397Z,1.12
2023-01-29T05:56:02.771Z,1.15
2023-01-29T05:58:31.176Z,1.16
2023-01-29T06:00:58.054Z,1.17
2023-01-29T06:03:24.680Z,1.16
2023-01-29T06:05:51.289Z,1.16
2023-01-29T06:08:17.883Z,1.18
2023-01-29T06:10:44.492Z,1.20
2023-01-29T06:13:12.473Z,1.21
2023-01-29T06:15:40.000Z,1.21
2023-01-29T06:18:06.560Z,1.22
2023-01-29T06:20:33.234Z,1.22
2023-01-29T06:23:00.288Z,1.23
2023-01-29T06:25:26.944Z,1.24
2023-01-29T06:27:53.567Z,1.25
2023-01-29T06:30:21.959Z,1.26
2023-01-29T06:32:48.592Z,1.26
2023-01-29T06:35:15.227Z,1.27
2023-01-29T06:37:42.040Z,1.28
2023-01-29T06:40:09.940Z,1.27
2023-01-29T06:42:36.556Z,1.29
2023-01-29T06:45:04.508Z,1.31
2023-01-29T06:47:32.689Z,1.30
2023-01-29T06:49:59.268Z,1.29
2023-01-29T06:52:25.878Z,1.30
2023-01-29T06:54:52.503Z,1.31
2023-01-29T06:57:19.163Z,1.33
2023-01-29T06:59:45.785Z,1.34
2023-01-29T07:02:12.775Z,1.35
2023-01-29T07:04:40.863Z,1.36
2023-01-29T07:07:07.539Z,1.35
2023-01-29T07:09:34.111Z,1.37
2023-01-29T07:12:00.815Z,1.38
2023-01-29T07:14:27.427Z,1.38
2023-01-29T07:16:54.144Z,1.39
2023-01-29T07:19:20.721Z,1.39
2023-01-29T07:21:48.794Z,1.38
2023-01-29T07:24:15.896Z,1.40
2023-01-29T07:26:42.635Z,1.40
2023-01-29T07:29:09.331Z,1.42
2023-01-29T07:31:36.049Z,1.45
2023-01-29T07:34:02.939Z,1.46
2023-01-29T07:36:29.781Z,1.45
2023-01-29T07:38:57.831Z,1.47
2023-01-29T07:41:24.450Z,1.47
2023-01-29T07:43:51.346Z,1.48
2023-01-29T07:46:18.075Z,1.48
2023-01-29T07:48:44.756Z,1.48
2023-01-29T07:51:11.338Z,1.48
2023-01-29T07:53:37.977Z,1.50
2023-01-29T07:56:06.489Z,1.51
2023-01-29T07:58:35.595Z,1.54
2023-01-29T08:01:05.634Z,1.56
2023-01-29T08:03:32.347Z,1.57
2023-01-29T08:05:59.004Z,1.57
2023-01-29T08:08:25.576Z,1.58
2023-01-29T08:10:52.173Z,1.58
2023-01-29T08:13:20.181Z,1.58
2023-01-29T08:15:46.975Z,1.59
2023-01-29T08:18:14.196Z,1.60
2023-01-29T08:20:40.932Z,1.62
2023-01-29T08:23:10.137Z,1.64
2023-01-29T08:25:36.930Z,1.67
2023-01-29T08:28:04.349Z,1.68
2023-01-29T08:30:34.641Z,1.70
2023-01-29T08:33:02.959Z,1.72
2023-01-29T08:35:29.531Z,1.72
2023-01-29T08:37:57.315Z,1.73
2023-01-29T08:40:23.997Z,1.74
2023-01-29T08:42:50.740Z,1.75
2023-01-29T08:45:17.559Z,1.76
2023-01-29T08:47:49.648Z,1.78
2023-01-29T08:50:17.825Z,1.80
2023-01-29T08:52:45.851Z,1.82
2023-01-29T08:55:13.204Z,1.85
2023-01-29T08:57:40.273Z,1.88
2023-01-29T09:00:08.467Z,1.91
2023-01-29T09:02:35.268Z,1.92
2023-01-29T09:05:03.492Z,1.94
2023-01-29T09:07:30.481Z,1.97
2023-01-29T09:09:57.106Z,2.01
2023-01-29T09:12:23.776Z,2.04
2023-01-29T09:14:50.437Z,2.08
2023-01-29T09:17:17.058Z,2.13
2023-01-29T09:19:43.656Z,2.16
2023-01-29T09:22:12.009Z,2.19
2023-01-29T09:24:38.754Z,2.21
2023-01-29T09:27:05.592Z,2.26
2023-01-29T09:29:34.688Z,2.29
2023-01-29T09:32:03.447Z,2.32
2023-01-29T09:34:30.179Z,2.35
2023-01-29T09:36:56.953Z,2.37
2023-01-29T09:39:25.126Z,2.42
2023-01-29T09:41:59.782Z,2.47
2023-01-29T09:44:46.236Z,2.55
2023-01-29T09:47:16.084Z,2.67
2023-01-29T09:49:47.167Z,2.78
2023-01-29T09:52:19.090Z,2.86
2023-01-29T09:54:54.849Z,2.94
2023-01-29T09:57:30.580Z,3.00
2023-01-29T09:59:57.451Z,3.08
2023-01-29T10:02:43.079Z,3.13
2023-01-29T10:05:19.574Z,3.21
2023-01-29T10:08:18.942Z,3.26
2023-01-29T10:10:51.355Z,3.32
2023-01-29T10:13:32.725Z,3.33
2023-01-29T10:16:12.292Z,3.40
2023-01-29T10:18:52.996Z,3.48
2023-01-29T10:21:52.314Z,3.58
2023-01-29T10:24:31.978Z,3.67
2023-01-29T10:27:01.873Z,3.77
2023-01-29T10:29:31.602Z,3.84
2023-01-29T10:32:02.529Z,3.95
2023-01-29T10:34:35.121Z,3.99
2023-01-29T10:37:10.816Z,4.08
2023-01-29T10:39:37.640Z,4.16
2023-01-29T10:42:17.518Z,4.17
2023-01-29T10:45:07.027Z,4.16
2023-01-29T10:47:57.904Z,4.16
2023-01-29T10:50:41.411Z,4.21
2023-01-29T10:53:27.330Z,4.25
2023-01-29T10:56:14.066Z,4.32
2023-01-29T10:58:51.546Z,4.35
2023-01-29T11:01:18.328Z,4.41
2023-01-29T11:03:45.175Z,4.42
2023-01-29T11:06:17.873Z,4.41
2023-01-29T11:08:52.563Z,4.41
2023-01-29T11:11:22.197Z,4.45
2023-01-29T11:13:54.845Z,4.49
2023-01-29T11:16:21.640Z,4.55
2023-01-29T11:18:50.477Z,4.54
2023-01-29T11:21:17.214Z,4.54
2023-01-29T11:23:43.910Z,4.55
2023-01-29T11:26:13.721Z,4.55
2023-01-29T11:28:42.432Z,4.60
2023-01-29T11:31:18.892Z,4.66
2023-01-29T11:33:46.326Z,4.67
2023-01-29T11:36:30.086Z,4.69
2023-01-29T11:39:13.792Z,4.72
2023-01-29T11:41:44.214Z,4.76
2023-01-29T11:44:26.506Z,4.82
2023-01-29T11:46:55.734Z,4.86
2023-01-29T11:49:30.789Z,4.87
2023-01-29T11:52:00.687Z,4.91
2023-01-29T11:54:31.663Z,4.92
2023-01-29T11:56:59.285Z,4.92
2023-01-29T11:59:37.871Z,4.89
2023-01-29T12:02:19.542Z,4.90
2023-01-29T12:04:47.951Z,4.93
2023-01-29T12:07:17.878Z,5.02
2023-01-29T12:09:49.780Z,5.02
2023-01-29T12:12:29.324Z,5.03
2023-01-29T12:15:15.587Z,5.04
2023-01-29T12:17:51.406Z,5.01
2023-01-29T12:20:23.187Z,5.04
2023-01-29T12:22:56.420Z,5.07
2023-01-29T12:25:35.052Z,5.08
2023-01-29T12:28:09.668Z,5.08
2023-01-29T12:30:46.164Z,5.08
2023-01-29T12:33:23.929Z,5.06
2023-01-29T12:35:56.442Z,5.07
2023-01-29T12:38:24.497Z,5.02
2023-01-29T12:40:55.129Z,4.96
2023-01-29T12:43:27.609Z,4.93
2023-01-29T12:45:57.000Z,4.90
2023-01-29T12:48:30.140Z,4.88
2023-01-29T12:51:04.645Z,4.87
2023-01-29T12:53:35.163Z,4.85
2023-01-29T12:56:05.970Z,4.81
2023-01-29T12:58:38.142Z,4.76
2023-01-29T13:01:14.156Z,4.73
2023-01-29T13:03:51.549Z,4.68
2023-01-29T13:06:22.364Z,4.63
2023-01-29T13:08:51.896Z,4.60
2023-01-29T13:11:24.691Z,4.55
2023-01-29T13:13:56.556Z,4.53
2023-01-29T13:16:27.736Z,4.50
2023-01-29T13:18:58.204Z,4.50
2023-01-29T13:21:29.116Z,4.49
2023-01-29T13:24:00.124Z,4.49
2023-01-29T13:26:26.983Z,4.45
2023-01-29T13:28:54.876Z,4.42
2023-01-29T13:31:29.358Z,4.37
2023-01-29T13:34:14.023Z,4.32
2023-01-29T13:36:43.596Z,4.29
2023-01-29T13:39:22.505Z,4.27
2023-01-29T13:41:50.836Z,4.24
2023-01-29T13:44:24.130Z,4.20
2023-01-29T13:46:55.832Z,4.18
2023-01-29T13:49:29.424Z,4.17
2023-01-29T13:51:57.445Z,4.15
2023-01-29T13:54:26.653Z,4.11
2023-01-29T13:57:01.203Z,4.09
2023-01-29T13:59:50.409Z,4.05
2023-01-29T14:02:25.739Z,4.01
2023-01-29T14:05:32.307Z,3.97
2023-01-29T14:07:59.546Z,3.94
2023-01-29T14:10:27.644Z,3.91
2023-01-29T14:12:55.556Z,3.90
2023-01-29T14:15:30.999Z,3.89
2023-01-29T14:18:14.655Z,3.86
2023-01-29T14:20:51.561Z,3.80
2023-01-29T14:23:32.436Z,3.76
2023-01-29T14:26:01.681Z,3.72
2023-01-29T14:28:30.782Z,3.71
2023-01-29T14:30:58.028Z,3.68
2023-01-29T14:33:28.634Z,3.65
2023-01-29T14:35:58.281Z,3.65
2023-01-29T14:38:27.682Z,3.65
2023-01-29T14:41:05.739Z,3.64
2023-01-29T14:43:32.387Z,3.61
2023-01-29T14:46:42.761Z,3.56
2023-01-29T14:49:09.523Z,3.55
2023-01-29T14:51:41.775Z,3.51
2023-01-29T14:54:21.180Z,3.50
2023-01-29T14:56:56.804Z,3.46
2023-01-29T14:59:30.639Z,3.43
2023-01-29T15:02:02.640Z,3.39
2023-01-29T15:04:35.875Z,3.36
2023-01-29T15:07:12.785Z,3.34
2023-01-29T15:09:45.715Z,3.31
2023-01-29T15:12:21.466Z,3.28
2023-01-29T15:14:56.807Z,3.26
2023-01-29T15:17:28.156Z,3.24
2023-01-29T15:19:55.070Z,3.24
2023-01-29T15:22:24.701Z,3.25
2023-01-29T15:25:04.414Z,3.23
2023-01-29T15:27:31.310Z,3.21
2023-01-29T15:30:01.195Z,3.19
2023-01-29T15:32:33.114Z,3.16
2023-01-29T15:35:00.529Z,3.13
2023-01-29T15:37:31.608Z,3.12
2023-01-29T15:39:59.602Z,3.10
2023-01-29T15:42:27.797Z,3.06
2023-01-29T15:44:54.885Z,3.05
2023-01-29T15:47:25.566Z,3.05
2023-01-29T15:49:52.708Z,3.03
2023-01-29T15:52:23.359Z,3.02
2023-01-29T15:54:51.989Z,3.00
2023-01-29T15:57:22.800Z,3.00
2023-01-29T15:59:50.788Z,2.99
2023-01-29T16:02:41.923Z,2.98
2023-01-29T16:05:15.495Z,2.99
2023-01-29T16:07:43.383Z,2.97
2023-01-29T16:10:18.844Z,2.96
2023-01-29T16:12:46.634Z,2.95
2023-01-29T16:15:23.257Z,2.92
2023-01-29T16:17:50.104Z,2.90
2023-01-29T16:20:30.780Z,2.87
2023-01-29T16:22:58.202Z,2.87
2023-01-29T16:25:29.314Z,2.86
2023-01-29T16:27:56.696Z,2.85
2023-01-29T16:30:26.661Z,2.85
2023-01-29T16:33:00.424Z,2.85
2023-01-29T16:35:27.260Z,2.84
2023-01-29T16:37:59.644Z,2.86
2023-01-29T16:40:29.751Z,2.87
2023-01-29T16:43:31.301Z,2.88
2023-01-29T16:46:05.563Z,2.88
2023-01-29T16:48:34.083Z,2.88
2023-01-29T16:51:05.071Z,2.88
2023-01-29T16:53:32.104Z,2.88
2023-01-29T16:56:05.814Z,2.88
2023-01-29T16:58:32.707Z,2.87
2023-01-29T17:01:02.641Z,2.89
2023-01-29T17:03:33.271Z,2.89
2023-01-29T17:06:08.367Z,2.89
2023-01-29T17:08:35.365Z,2.88
2023-01-29T17:11:03.929Z,2.88
2023-01-29T17:13:36.537Z,2.88
2023-01-29T17:16:15.955Z,2.88
2023-01-29T17:18:43.119Z,2.87
2023-01-29T17:21:09.786Z,2.86
2023-01-29T17:23:36.633Z,2.86
2023-01-29T17:26:05.974Z,2.89
2023-01-29T17:28:33.627Z,2.87
2023-01-29T17:31:06.179Z,2.87
2023-01-29T17:33:34.053Z,2.88
2023-01-29T17:36:00.979Z,2.88
2023-01-29T17:38:27.720Z,2.91
2023-01-29T17:40:57.562Z,2.90
2023-01-29T17:43:25.710Z,2.91
2023-01-29T17:45:52.439Z,2.91
2023-01-29T17:48:22.293Z,2.91
2023-01-29T17:50:51.308Z,2.90
2023-01-29T17:53:18.211Z,2.88
2023-01-29T17:55:44.878Z,2.88
2023-01-29T17:58:17.813Z,2.89
2023-01-29T18:00:46.453Z,2.88
2023-01-29T18:03:13.277Z,2.89
2023-01-29T18:05:40.898Z,2.88
2023-01-29T18:08:14.292Z,2.87
2023-01-29T18:10:40.742Z,2.85
2023-01-29T18:13:07.573Z,2.85
2023-01-29T18:15:34.422Z,2.86
2023-01-29T18:18:02.615Z,2.86
2023-01-29T18:20:29.412Z,2.85
2023-01-29T18:22:56.206Z,2.85
2023-01-29T18:25:24.830Z,2.85
2023-01-29T18:27:52.551Z,2.85
2023-01-29T18:30:19.258Z,2.85
2023-01-29T18:32:46.026Z,2.86
2023-01-29T18:35:14.612Z,2.87
2023-01-29T18:37:41.564Z,2.88
2023-01-29T18:40:09.687Z,2.86
2023-01-29T18:42:36.604Z,2.86
2023-01-29T18:45:03.828Z,2.86
2023-01-29T18:47:30.555Z,2.86
2023-01-29T18:49:57.400Z,2.85
2023-01-29T18:52:25.888Z,2.84
2023-01-29T18:54:52.804Z,2.84
2023-01-29T18:58:27.338Z,2.83
2023-01-29T19:00:07.712Z,2.83
2023-01-29T19:02:34.501Z,2.83
2023-01-29T19:05:01.262Z,2.81
2023-01-29T19:07:29.654Z,2.81
2023-01-29T19:09:56.419Z,2.81
2023-01-29T19:12:23.682Z,2.81
2023-01-29T19:14:50.411Z,2.82
2023-01-29T19:17:17.324Z,2.81
2023-01-29T19:19:44.241Z,2.82
2023-01-29T19:22:11.060Z,2.84
2023-01-29T19:24:39.162Z,2.83
2023-01-29T19:27:06.086Z,2.84
2023-01-29T19:29:32.937Z,2.85
2023-01-29T19:31:59.671Z,2.85
2023-01-29T19:34:26.401Z,2.86
2023-01-29T19:36:53.144Z,2.86
2023-01-29T19:39:19.864Z,2.86
2023-01-29T19:41:48.010Z,2.86
2023-01-29T19:44:14.708Z,2.86
2023-01-29T19:46:41.363Z,2.87
2023-01-29T19:49:08.161Z,2.86
2023-01-29T19:51:34.831Z,2.85
2023-01-29T19:54:01.629Z,2.84
2023-01-29T19:56:28.292Z,2.83
2023-01-29T19:58:56.547Z,2.84
2023-01-29T20:01:23.947Z,2.83
2023-01-29T20:03:51.428Z,2.84
2023-01-29T20:06:19.995Z,2.83
2023-01-29T20:08:46.911Z,2.83
2023-01-29T20:11:14.351Z,2.83
2023-01-29T20:13:40.995Z,2.83
2023-01-29T20:16:09.406Z,2.84
2023-01-29T20:18:36.194Z,2.83
2023-01-29T20:21:06.627Z,2.83
2023-01-29T20:23:38.133Z,2.84
2023-01-29T20:26:06.359Z,2.83
2023-01-29T20:28:33.634Z,2.80
2023-01-29T20:31:00.666Z,2.81
2023-01-29T20:33:28.667Z,2.79
2023-01-29T20:35:56.311Z,2.78
2023-01-29T20:38:23.837Z,2.77
2023-01-29T20:40:50.447Z,2.77
2023-01-29T20:43:17.077Z,2.74
2023-01-29T20:45:43.837Z,2.76
2023-01-29T20:48:10.564Z,2.77
2023-01-29T20:50:38.678Z,2.76
2023-01-29T20:53:05.301Z,2.76
2023-01-29T20:55:32.090Z,2.76
2023-01-29T20:58:06.095Z,2.77
2023-01-29T21:00:33.576Z,2.77
2023-01-29T21:03:00.210Z,2.77
2023-01-29T21:05:26.912Z,2.76
2023-01-29T21:07:55.507Z,2.77
2023-01-29T21:10:22.251Z,2.77
2023-01-29T21:12:48.895Z,2.76
2023-01-29T21:15:15.607Z,2.76
2023-01-29T21:17:42.240Z,2.76
2023-01-29T21:20:10.060Z,2.73
2023-01-29T21:22:36.874Z,2.72
2023-01-29T21:25:05.800Z,2.72
2023-01-29T21:27:32.406Z,2.70
2023-01-29T21:29:58.987Z,2.70
2023-01-29T21:32:25.666Z,2.70
2023-01-29T21:34:52.734Z,2.72
2023-01-29T21:37:19.423Z,2.72
2023-01-29T21:39:46.130Z,2.71
2023-01-29T21:42:14.174Z,2.71
2023-01-29T21:44:40.817Z,2.71
2023-01-29T21:47:07.474Z,2.72
2023-01-29T21:49:34.051Z,2.73
2023-01-29T21:52:00.617Z,2.73
2023-01-29T21:54:27.185Z,2.74
2023-01-29T21:56:53.846Z,2.74
2023-01-29T21:59:21.862Z,2.75
2023-01-29T22:01:48.904Z,2.76
2023-01-29T22:04:15.587Z,2.77
2023-01-29T22:06:42.275Z,2.78
2023-01-29T22:09:08.913Z,2.78
2023-01-29T22:11:35.607Z,2.79
2023-01-29T22:14:02.195Z,2.78
2023-01-29T22:16:30.201Z,2.76
2023-01-29T22:18:56.827Z,2.78
2023-01-29T22:21:23.434Z,2.77
2023-01-29T22:23:50.123Z,2.79
2023-01-29T22:26:17.018Z,2.78
2023-01-29T22:28:43.762Z,2.79
2023-01-29T22:31:10.508Z,2.78
2023-01-29T22:33:38.509Z,2.78
2023-01-29T22:36:05.891Z,2.78
2023-01-29T22:38:32.486Z,2.78
2023-01-29T22:41:00.368Z,2.78
2023-01-29T22:43:27.109Z,2.77
2023-01-29T22:45:53.739Z,2.77
2023-01-29T22:48:22.214Z,2.76
2023-01-29T22:50:56.212Z,2.78
2023-01-29T22:53:22.834Z,2.77
2023-01-29T22:55:53.691Z,2.77
2023-01-29T22:58:20.332Z,2.78
2023-01-29T23:00:50.048Z,2.77
2023-01-29T23:03:16.743Z,2.78
2023-01-29T23:05:43.418Z,2.79
2023-01-29T23:08:11.513Z,2.79
2023-01-29T23:10:38.309Z,2.79
2023-01-29T23:13:04.914Z,2.78
2023-01-29T23:15:31.530Z,2.78
2023-01-29T23:17:58.312Z,2.76
2023-01-29T23:20:24.988Z,2.77
2023-01-29T23:22:51.722Z,2.76
2023-01-29T23:25:19.765Z,2.74
2023-01-29T23:27:47.210Z,2.75
2023-01-29T23:30:14.051Z,2.74
2023-01-29T23:32:40.813Z,2.73
2023-01-29T23:35:08.258Z,2.73
2023-01-29T23:37:34.886Z,2.72
2023-01-29T23:40:01.625Z,2.70
2023-01-29T23:42:29.627Z,2.69
2023-01-29T23:44:56.375Z,2.69
2023-01-29T23:47:22.963Z,2.69
2023-01-29T23:49:49.798Z,2.68
2023-01-29T23:52:16.377Z,2.69
2023-01-29T23:54:43.042Z,2.69
2023-01-29T23:57:09.940Z,2.68
2023-01-29T23:59:38.060Z,2.69
